createdAt,value
2023-02-11T00:00:32.252Z,98
2023-02-11T00:01:32.340Z,98
2023-02-11T00:02:32.317Z,98
2023-02-11T00:03:32.402Z,98
2023-02-11T00:04:32.281Z,98
2023-02-11T00:05:32.259Z,98
2023-02-11T00:06:32.268Z,98
2023-02-11T00:07:32.331Z,98
2023-02-11T00:08:40.198Z,98
2023-02-11T00:09:44.200Z,98
2023-02-11T00:10:48.457Z,98
2023-02-11T00:11:52.230Z,98
2023-02-11T00:12:56.213Z,98
2023-02-11T00:14:00.182Z,98
2023-02-11T00:15:04.218Z,98
2023-02-11T00:16:08.192Z,98
2023-02-11T00:17:12.206Z,98
2023-02-11T00:18:16.178Z,98
2023-02-11T00:19:20.229Z,98
2023-02-11T00:20:24.186Z,98
2023-02-11T00:21:28.214Z,98
2023-02-11T00:22:31.269Z,98
2023-02-11T00:23:31.246Z,98
2023-02-11T00:24:31.217Z,98
2023-02-11T00:25:31.262Z,98
2023-02-11T00:26:31.248Z,98
2023-02-11T00:27:31.333Z,98
2023-02-11T00:28:31.355Z,98
2023-02-11T00:29:31.265Z,98
2023-02-11T00:30:31.288Z,98
2023-02-11T00:31:31.338Z,98
2023-02-11T00:32:31.240Z,98
2023-02-11T00:33:31.314Z,98
2023-02-11T00:34:31.274Z,99
2023-02-11T00:35:31.248Z,99
2023-02-11T00:36:31.220Z,99
2023-02-11T00:37:31.241Z,99
2023-02-11T00:38:31.256Z,99
2023-02-11T00:39:31.268Z,99
2023-02-11T00:40:31.295Z,99
2023-02-11T00:41:31.284Z,99
2023-02-11T00:42:31.268Z,99
2023-02-11T00:43:31.341Z,99
2023-02-11T00:44:31.254Z,99
2023-02-11T00:45:31.240Z,99
2023-02-11T00:46:31.272Z,99
2023-02-11T00:47:31.250Z,99
2023-02-11T00:48:31.240Z,99
2023-02-11T00:49:31.231Z,99
2023-02-11T00:50:31.231Z,99
2023-02-11T00:51:31.255Z,99
2023-02-11T00:52:31.232Z,99
2023-02-11T00:53:31.234Z,99
2023-02-11T00:54:31.305Z,99
2023-02-11T00:55:31.312Z,99
2023-02-11T00:56:31.274Z,99
2023-02-11T00:57:31.269Z,99
2023-02-11T00:58:31.262Z,99
2023-02-11T00:59:31.264Z,99
2023-02-11T01:00:31.247Z,99
2023-02-11T01:01:31.297Z,99
2023-02-11T01:02:31.231Z,99
2023-02-11T01:03:31.249Z,99
2023-02-11T01:04:31.239Z,99
2023-02-11T01:05:31.264Z,99
2023-02-11T01:06:31.239Z,99
2023-02-11T01:07:31.302Z,99
2023-02-11T01:08:31.224Z,99
2023-02-11T01:09:31.235Z,99
2023-02-11T01:10:31.229Z,99
2023-02-11T01:11:31.227Z,99
2023-02-11T01:12:31.235Z,99
2023-02-11T01:13:31.244Z,99
2023-02-11T01:14:31.230Z,99
2023-02-11T01:15:31.267Z,99
2023-02-11T01:16:31.235Z,99
2023-02-11T01:17:31.294Z,99
2023-02-11T01:18:31.220Z,99
2023-02-11T01:19:31.284Z,99
2023-02-11T01:20:31.224Z,99
2023-02-11T01:21:31.260Z,99
2023-02-11T01:22:31.252Z,99
2023-02-11T01:23:31.273Z,99
2023-02-11T01:24:31.249Z,99
2023-02-11T01:25:31.256Z,99
2023-02-11T01:26:31.231Z,99
2023-02-11T01:27:31.249Z,99
2023-02-11T01:28:31.365Z,99
2023-02-11T01:29:31.245Z,99
2023-02-11T01:30:31.237Z,99
2023-02-11T01:31:31.494Z,99
2023-02-11T01:32:31.220Z,99
2023-02-11T01:33:31.254Z,99
2023-02-11T01:34:31.223Z,99
2023-02-11T01:35:31.251Z,99
2023-02-11T01:36:31.241Z,99
2023-02-11T01:37:31.257Z,99
2023-02-11T01:38:31.233Z,99
2023-02-11T01:39:31.275Z,99
2023-02-11T01:40:31.380Z,99
2023-02-11T01:41:31.399Z,99
2023-02-11T01:42:31.381Z,99
2023-02-11T01:43:31.412Z,99
2023-02-11T01:44:31.351Z,99
2023-02-11T01:45:31.351Z,99
2023-02-11T01:46:31.449Z,99
2023-02-11T01:47:31.398Z,99
2023-02-11T01:48:31.399Z,99
2023-02-11T01:49:31.481Z,99
2023-02-11T01:50:31.429Z,99
2023-02-11T01:51:31.404Z,99
2023-02-11T01:52:31.437Z,99
2023-02-11T01:53:31.350Z,99
2023-02-11T01:54:31.332Z,99
2023-02-11T01:55:31.510Z,99
2023-02-11T01:56:31.217Z,99
2023-02-11T01:57:31.269Z,99
2023-02-11T01:58:31.229Z,99
2023-02-11T01:59:31.273Z,99
2023-02-11T02:00:31.239Z,99
2023-02-11T02:01:31.292Z,99
2023-02-11T02:02:31.222Z,99
2023-02-11T02:03:31.258Z,99
2023-02-11T02:04:31.229Z,99
2023-02-11T02:05:31.406Z,99
2023-02-11T02:06:31.230Z,99
2023-02-11T02:07:31.289Z,99
2023-02-11T02:08:31.235Z,99
2023-02-11T02:09:31.292Z,99
2023-02-11T02:10:31.221Z,99
2023-02-11T02:11:31.248Z,99
2023-02-11T02:12:31.231Z,99
2023-02-11T02:13:31.290Z,99
2023-02-11T02:14:31.232Z,99
2023-02-11T02:15:31.263Z,99
2023-02-11T02:16:31.220Z,99
2023-02-11T02:17:31.246Z,99
2023-02-11T02:18:31.301Z,99
2023-02-11T02:19:31.247Z,99
2023-02-11T02:20:31.212Z,99
2023-02-11T02:21:31.245Z,99
2023-02-11T02:22:31.209Z,99
2023-02-11T02:23:31.328Z,99
2023-02-11T02:24:31.247Z,99
2023-02-11T02:25:31.230Z,99
2023-02-11T02:26:31.282Z,99
2023-02-11T02:27:31.241Z,99
2023-02-11T02:28:31.318Z,99
2023-02-11T02:29:31.215Z,99
2023-02-11T02:30:31.274Z,99
2023-02-11T02:31:31.290Z,99
2023-02-11T02:32:31.249Z,99
2023-02-11T02:33:31.235Z,99
2023-02-11T02:34:31.221Z,99
2023-02-11T02:35:31.264Z,99
2023-02-11T02:36:31.217Z,99
2023-02-11T02:37:31.247Z,99
2023-02-11T02:38:31.259Z,99
2023-02-11T02:39:31.229Z,99
2023-02-11T02:40:31.238Z,99
2023-02-11T02:41:31.206Z,99
2023-02-11T02:42:31.267Z,99
2023-02-11T02:43:31.247Z,99
2023-02-11T02:44:31.198Z,99
2023-02-11T02:45:31.243Z,99
2023-02-11T02:46:31.319Z,99
2023-02-11T02:47:31.244Z,99
2023-02-11T02:48:31.228Z,99
2023-02-11T02:49:31.221Z,99
2023-02-11T02:50:31.322Z,99
2023-02-11T02:51:31.231Z,99
2023-02-11T02:52:31.228Z,99
2023-02-11T02:53:31.260Z,99
2023-02-11T02:54:31.279Z,99
2023-02-11T02:55:31.237Z,99
2023-02-11T02:56:31.221Z,99
2023-02-11T02:57:31.284Z,99
2023-02-11T02:58:31.255Z,99
2023-02-11T02:59:31.230Z,99
2023-02-11T03:00:31.324Z,99
2023-02-11T03:01:31.252Z,99
2023-02-11T03:02:31.231Z,99
2023-02-11T03:03:31.349Z,99
2023-02-11T03:04:31.242Z,99
2023-02-11T03:05:31.265Z,99
2023-02-11T03:06:31.273Z,99
2023-02-11T03:07:31.241Z,99
2023-02-11T03:08:31.236Z,99
2023-02-11T03:09:31.220Z,99
2023-02-11T03:10:31.280Z,99
2023-02-11T03:11:31.337Z,99
2023-02-11T03:12:31.214Z,99
2023-02-11T03:13:31.239Z,99
2023-02-11T03:14:31.238Z,99
2023-02-11T03:15:31.237Z,99
2023-02-11T03:16:31.376Z,99
2023-02-11T03:17:31.255Z,99
2023-02-11T03:18:31.273Z,99
2023-02-11T03:19:31.273Z,99
2023-02-11T03:20:31.250Z,99
2023-02-11T03:21:31.232Z,99
2023-02-11T03:22:31.397Z,99
2023-02-11T03:23:31.323Z,99
2023-02-11T03:24:31.351Z,99
2023-02-11T03:25:31.238Z,99
2023-02-11T03:26:31.256Z,99
2023-02-11T03:27:31.303Z,99
2023-02-11T03:28:31.454Z,99
2023-02-11T03:29:31.209Z,99
2023-02-11T03:30:31.366Z,99
2023-02-11T03:31:31.640Z,99
2023-02-11T03:32:31.321Z,99
2023-02-11T03:33:31.288Z,99
2023-02-11T03:34:31.340Z,99
2023-02-11T03:35:31.366Z,99
2023-02-11T03:36:31.269Z,99
2023-02-11T03:37:31.219Z,99
2023-02-11T03:38:31.411Z,99
2023-02-11T03:39:31.226Z,99
2023-02-11T03:40:31.347Z,99
2023-02-11T03:41:31.370Z,99
2023-02-11T03:42:31.380Z,99
2023-02-11T03:43:31.262Z,99
2023-02-11T03:44:31.352Z,99
2023-02-11T03:45:31.373Z,99
2023-02-11T03:46:31.456Z,99
2023-02-11T03:47:31.314Z,99
2023-02-11T03:48:31.328Z,99
2023-02-11T03:49:31.221Z,99
2023-02-11T03:50:31.306Z,99
2023-02-11T03:51:31.235Z,99
2023-02-11T03:52:31.235Z,99
2023-02-11T03:53:31.212Z,99
2023-02-11T03:54:31.286Z,99
2023-02-11T03:55:31.226Z,99
2023-02-11T03:56:31.218Z,99
2023-02-11T03:57:31.226Z,99
2023-02-11T03:58:31.285Z,99
2023-02-11T03:59:31.244Z,99
2023-02-11T04:00:31.210Z,99
2023-02-11T04:01:31.287Z,99
2023-02-11T04:02:31.237Z,99
2023-02-11T04:03:31.288Z,99
2023-02-11T04:04:31.222Z,99
2023-02-11T04:05:31.238Z,99
2023-02-11T04:06:31.264Z,99
2023-02-11T04:07:31.217Z,99
2023-02-11T04:08:31.224Z,99
2023-02-11T04:09:31.263Z,99
2023-02-11T04:10:31.244Z,99
2023-02-11T04:11:31.225Z,99
2023-02-11T04:12:31.224Z,99
2023-02-11T04:13:31.189Z,99
2023-02-11T04:14:31.245Z,99
2023-02-11T04:15:31.212Z,99
2023-02-11T04:16:31.282Z,99
2023-02-11T04:17:31.241Z,99
2023-02-11T04:18:31.260Z,99
2023-02-11T04:19:31.237Z,98
2023-02-11T04:20:31.212Z,98
2023-02-11T04:21:31.231Z,98
2023-02-11T04:22:31.253Z,98
2023-02-11T04:23:31.303Z,98
2023-02-11T04:24:31.255Z,98
2023-02-11T04:25:31.266Z,98
2023-02-11T04:26:31.250Z,98
2023-02-11T04:27:31.254Z,98
2023-02-11T04:28:31.308Z,98
2023-02-11T04:29:31.225Z,98
2023-02-11T04:30:31.187Z,98
2023-02-11T04:31:31.260Z,98
2023-02-11T04:32:31.214Z,98
2023-02-11T04:33:31.255Z,98
2023-02-11T04:34:31.204Z,98
2023-02-11T04:35:31.292Z,98
2023-02-11T04:36:31.220Z,98
2023-02-11T04:37:31.229Z,98
2023-02-11T04:38:31.205Z,98
2023-02-11T04:39:31.234Z,98
2023-02-11T04:40:31.210Z,98
2023-02-11T04:41:31.215Z,98
2023-02-11T04:42:31.195Z,98
2023-02-11T04:43:31.255Z,98
2023-02-11T04:44:31.217Z,98
2023-02-11T04:45:31.230Z,97
2023-02-11T04:46:31.252Z,97
2023-02-11T04:47:31.258Z,97
2023-02-11T04:48:31.239Z,97
2023-02-11T04:49:31.245Z,97
2023-02-11T04:50:31.218Z,97
2023-02-11T04:51:31.231Z,97
2023-02-11T04:52:31.209Z,97
2023-02-11T04:53:31.274Z,97
2023-02-11T04:54:31.245Z,97
2023-02-11T04:55:31.232Z,97
2023-02-11T04:56:31.221Z,97
2023-02-11T04:57:31.245Z,97
2023-02-11T04:58:31.249Z,97
2023-02-11T04:59:31.266Z,97
2023-02-11T05:00:31.262Z,97
2023-02-11T05:01:31.286Z,97
2023-02-11T05:02:31.226Z,97
2023-02-11T05:03:31.252Z,97
2023-02-11T05:04:31.266Z,97
2023-02-11T05:05:31.232Z,97
2023-02-11T05:06:31.213Z,96
2023-02-11T05:07:31.250Z,96
2023-02-11T05:08:31.381Z,96
2023-02-11T05:09:31.228Z,96
2023-02-11T05:10:31.197Z,96
2023-02-11T05:11:31.236Z,96
2023-02-11T05:12:31.202Z,96
2023-02-11T05:13:31.223Z,96
2023-02-11T05:14:31.230Z,96
2023-02-11T05:15:31.248Z,96
2023-02-11T05:16:31.269Z,96
2023-02-11T05:17:31.211Z,96
2023-02-11T05:18:31.191Z,96
2023-02-11T05:19:31.254Z,96
2023-02-11T05:20:31.252Z,95
2023-02-11T05:21:31.202Z,95
2023-02-11T05:22:31.228Z,95
2023-02-11T05:23:31.233Z,95
2023-02-11T05:24:31.239Z,95
2023-02-11T05:25:31.225Z,95
2023-02-11T05:26:31.199Z,95
2023-02-11T05:27:31.215Z,95
2023-02-11T05:28:31.305Z,95
2023-02-11T05:29:31.200Z,95
2023-02-11T05:30:31.279Z,95
2023-02-11T05:31:31.210Z,95
2023-02-11T05:32:31.226Z,95
2023-02-11T05:33:31.224Z,95
2023-02-11T05:34:31.215Z,94
2023-02-11T05:35:31.194Z,94
2023-02-11T05:36:33.321Z,94
2023-02-11T05:37:31.304Z,93
2023-02-11T05:38:31.235Z,93
2023-02-11T05:39:31.229Z,93
2023-02-11T05:40:31.244Z,92
2023-02-11T05:41:31.217Z,92
2023-02-11T05:42:31.292Z,92
2023-02-11T05:43:31.193Z,92
2023-02-11T05:44:31.207Z,92
2023-02-11T05:45:31.243Z,92
2023-02-11T05:46:31.299Z,92
2023-02-11T05:47:31.193Z,92
2023-02-11T05:48:31.224Z,91
2023-02-11T05:49:31.206Z,91
2023-02-11T05:50:31.242Z,91
2023-02-11T05:51:31.399Z,91
2023-02-11T05:52:31.210Z,91
2023-02-11T05:53:31.200Z,91
2023-02-11T05:54:31.195Z,91
2023-02-11T05:55:31.259Z,91
2023-02-11T05:56:31.238Z,91
2023-02-11T05:57:31.203Z,90
2023-02-11T05:58:31.207Z,90
2023-02-11T05:59:31.199Z,90
2023-02-11T06:00:31.260Z,90
2023-02-11T06:01:31.242Z,90
2023-02-11T06:02:31.395Z,90
2023-02-11T06:03:31.254Z,90
2023-02-11T06:04:31.236Z,90
2023-02-11T06:05:31.258Z,90
2023-02-11T06:06:31.217Z,90
2023-02-11T06:07:31.200Z,90
2023-02-11T06:08:31.236Z,90
2023-02-11T06:09:31.260Z,90
2023-02-11T06:10:31.232Z,90
2023-02-11T06:11:31.198Z,91
2023-02-11T06:12:31.214Z,90
2023-02-11T06:13:31.201Z,90
2023-02-11T06:14:31.222Z,91
2023-02-11T06:15:31.189Z,91
2023-02-11T06:16:31.316Z,91
2023-02-11T06:17:31.206Z,90
2023-02-11T06:18:31.227Z,90
2023-02-11T06:19:31.231Z,90
2023-02-11T06:20:31.286Z,90
2023-02-11T06:21:42.883Z,90
2023-02-11T06:22:31.216Z,90
2023-02-11T06:23:31.218Z,91
2023-02-11T06:24:54.753Z,91
2023-02-11T06:25:31.261Z,91
2023-02-11T06:26:31.191Z,91
2023-02-11T06:27:31.256Z,91
2023-02-11T06:28:31.328Z,91
2023-02-11T06:29:31.203Z,91
2023-02-11T06:30:31.201Z,91
2023-02-11T06:31:31.343Z,91
2023-02-11T06:32:43.396Z,90
2023-02-11T06:33:31.236Z,90
2023-02-11T06:34:31.186Z,90
2023-02-11T06:35:31.305Z,89
2023-02-11T06:36:31.213Z,89
2023-02-11T06:37:31.293Z,89
2023-02-11T06:38:31.189Z,89
2023-02-11T06:39:31.221Z,89
2023-02-11T06:40:31.219Z,89
2023-02-11T06:41:31.208Z,89
2023-02-11T06:42:31.367Z,89
2023-02-11T06:43:31.251Z,89
2023-02-11T06:44:31.202Z,89
2023-02-11T06:45:31.211Z,89
2023-02-11T06:46:31.292Z,89
2023-02-11T06:47:31.274Z,89
2023-02-11T06:48:31.200Z,89
2023-02-11T06:49:31.194Z,89
2023-02-11T06:50:31.196Z,89
2023-02-11T06:51:31.241Z,89
2023-02-11T06:52:31.222Z,89
2023-02-11T06:53:31.200Z,89
2023-02-11T06:54:31.176Z,89
2023-02-11T06:55:31.296Z,89
2023-02-11T06:56:31.208Z,89
2023-02-11T06:57:31.268Z,89
2023-02-11T06:58:31.214Z,90
2023-02-11T06:59:31.275Z,90
2023-02-11T07:00:31.268Z,90
2023-02-11T07:01:31.248Z,90
2023-02-11T07:02:31.314Z,90
2023-02-11T07:03:31.230Z,90
2023-02-11T07:04:31.213Z,90
2023-02-11T07:05:31.213Z,90
2023-02-11T07:06:31.230Z,90
2023-02-11T07:07:33.913Z,90
2023-02-11T07:08:31.208Z,90
2023-02-11T07:09:31.228Z,90
2023-02-11T07:10:31.218Z,90
2023-02-11T07:11:31.212Z,90
2023-02-11T07:12:31.181Z,90
2023-02-11T07:13:31.199Z,90
2023-02-11T07:14:31.182Z,90
2023-02-11T07:15:31.231Z,90
2023-02-11T07:16:31.245Z,91
2023-02-11T07:17:31.223Z,91
2023-02-11T07:18:31.204Z,91
2023-02-11T07:19:31.212Z,91
2023-02-11T07:20:31.229Z,91
2023-02-11T07:21:31.229Z,91
2023-02-11T07:22:31.221Z,91
2023-02-11T07:23:31.209Z,91
2023-02-11T07:24:31.168Z,91
2023-02-11T07:25:31.178Z,91
2023-02-11T07:26:31.248Z,91
2023-02-11T07:27:31.197Z,91
2023-02-11T07:28:31.256Z,91
2023-02-11T07:29:31.181Z,91
2023-02-11T07:30:31.260Z,91
2023-02-11T07:31:31.432Z,91
2023-02-11T07:32:31.214Z,91
2023-02-11T07:33:31.209Z,91
2023-02-11T07:34:31.256Z,91
2023-02-11T07:35:31.183Z,91
2023-02-11T07:36:31.277Z,91
2023-02-11T07:37:31.208Z,91
2023-02-11T07:38:31.231Z,91
2023-02-11T07:39:31.214Z,91
2023-02-11T07:40:31.194Z,91
2023-02-11T07:41:31.184Z,91
2023-02-11T07:42:31.235Z,91
2023-02-11T07:43:31.178Z,91
2023-02-11T07:44:31.203Z,91
2023-02-11T07:45:31.201Z,91
2023-02-11T07:46:31.234Z,91
2023-02-11T07:47:31.188Z,91
2023-02-11T07:48:31.239Z,91
2023-02-11T07:49:31.268Z,91
2023-02-11T07:50:31.236Z,91
2023-02-11T07:51:31.240Z,91
2023-02-11T07:52:31.217Z,91
2023-02-11T07:53:31.265Z,91
2023-02-11T07:54:31.231Z,91
2023-02-11T07:55:31.203Z,91
2023-02-11T07:56:31.208Z,91
2023-02-11T07:57:31.208Z,91
2023-02-11T07:58:31.244Z,91
2023-02-11T07:59:31.181Z,91
2023-02-11T08:00:31.258Z,91
2023-02-11T08:01:31.226Z,91
2023-02-11T08:02:31.269Z,91
2023-02-11T08:03:31.263Z,91
2023-02-11T08:04:31.208Z,91
2023-02-11T08:05:31.209Z,91
2023-02-11T08:06:31.214Z,91
2023-02-11T08:07:31.189Z,91
2023-02-11T08:08:31.192Z,91
2023-02-11T08:09:33.452Z,90
2023-02-11T08:10:31.208Z,91
2023-02-11T08:11:31.181Z,91
2023-02-11T08:12:31.214Z,91
2023-02-11T08:13:31.187Z,91
2023-02-11T08:14:31.264Z,91
2023-02-11T08:15:31.191Z,91
2023-02-11T08:16:31.338Z,91
2023-02-11T08:17:31.176Z,91
2023-02-11T08:18:31.282Z,90
2023-02-11T08:19:33.456Z,90
2023-02-11T08:20:31.207Z,90
2023-02-11T08:21:31.200Z,90
2023-02-11T08:22:31.231Z,90
2023-02-11T08:23:31.210Z,90
2023-02-11T08:24:31.215Z,90
2023-02-11T08:25:31.245Z,90
2023-02-11T08:26:31.214Z,90
2023-02-11T08:27:31.203Z,89
2023-02-11T08:28:31.238Z,90
2023-02-11T08:29:31.205Z,90
2023-02-11T08:30:31.238Z,90
2023-02-11T08:31:31.416Z,89
2023-02-11T08:32:31.208Z,90
2023-02-11T08:33:31.227Z,90
2023-02-11T08:34:31.235Z,90
2023-02-11T08:35:31.211Z,90
2023-02-11T08:36:31.187Z,90
2023-02-11T08:37:33.074Z,90
2023-02-11T08:38:31.202Z,90
2023-02-11T08:39:31.164Z,90
2023-02-11T08:40:31.285Z,89
2023-02-11T08:41:31.211Z,89
2023-02-11T08:42:31.243Z,90
2023-02-11T08:43:31.194Z,90
2023-02-11T08:44:31.193Z,90
2023-02-11T08:45:31.271Z,89
2023-02-11T08:46:31.372Z,89
2023-02-11T08:47:31.225Z,89
2023-02-11T08:48:31.201Z,89
2023-02-11T08:49:31.203Z,89
2023-02-11T08:50:31.215Z,90
2023-02-11T08:51:31.274Z,90
2023-02-11T08:52:31.193Z,90
2023-02-11T08:53:31.187Z,90
2023-02-11T08:54:31.216Z,90
2023-02-11T08:55:31.183Z,90
2023-02-11T08:56:31.176Z,90
2023-02-11T08:57:31.176Z,89
2023-02-11T08:58:31.221Z,89
2023-02-11T08:59:31.213Z,89
2023-02-11T09:00:31.204Z,89
2023-02-11T09:01:31.330Z,89
2023-02-11T09:02:31.300Z,89
2023-02-11T09:03:31.227Z,89
2023-02-11T09:04:31.185Z,90
2023-02-11T09:05:31.201Z,89
2023-02-11T09:06:31.257Z,89
2023-02-11T09:07:31.263Z,89
2023-02-11T09:08:31.168Z,89
2023-02-11T09:09:31.196Z,89
2023-02-11T09:10:31.214Z,89
2023-02-11T09:11:31.220Z,89
2023-02-11T09:12:31.212Z,89
2023-02-11T09:13:31.221Z,89
2023-02-11T09:14:31.186Z,89
2023-02-11T09:15:31.310Z,89
2023-02-11T09:16:31.277Z,88
2023-02-11T09:17:31.198Z,89
2023-02-11T09:18:31.210Z,89
2023-02-11T09:19:31.190Z,89
2023-02-11T09:20:31.193Z,89
2023-02-11T09:21:31.248Z,88
2023-02-11T09:22:31.239Z,88
2023-02-11T09:23:31.162Z,88
2023-02-11T09:24:31.240Z,87
2023-02-11T09:25:31.216Z,87
2023-02-11T09:26:31.215Z,87
2023-02-11T09:27:31.203Z,87
2023-02-11T09:28:31.256Z,87
2023-02-11T09:29:31.193Z,87
2023-02-11T09:30:31.290Z,87
2023-02-11T09:31:31.741Z,87
2023-02-11T09:32:31.211Z,87
2023-02-11T09:33:31.178Z,87
2023-02-11T09:34:32.142Z,87
2023-02-11T09:35:36.004Z,87
2023-02-11T09:36:40.046Z,86
2023-02-11T09:37:43.960Z,87
2023-02-11T09:38:47.990Z,87
2023-02-11T09:39:51.974Z,87
2023-02-11T09:40:56.002Z,87
2023-02-11T09:41:59.953Z,87
2023-02-11T09:43:04.243Z,87
2023-02-11T09:44:08.000Z,87
2023-02-11T09:45:11.978Z,86
2023-02-11T09:46:16.096Z,86
2023-02-11T09:47:19.984Z,86
2023-02-11T09:48:23.963Z,86
2023-02-11T09:49:27.965Z,86
2023-02-11T09:50:31.194Z,86
2023-02-11T09:51:31.182Z,86
2023-02-11T09:52:31.165Z,86
2023-02-11T09:53:31.189Z,86
2023-02-11T09:54:31.173Z,85
2023-02-11T09:55:31.207Z,85
2023-02-11T09:56:31.248Z,85
2023-02-11T09:57:31.282Z,85
2023-02-11T09:58:31.196Z,85
2023-02-11T09:59:31.201Z,86
2023-02-11T10:00:31.217Z,85
2023-02-11T10:01:31.364Z,86
2023-02-11T10:02:31.244Z,86
2023-02-11T10:03:31.208Z,86
2023-02-11T10:04:31.258Z,86
2023-02-11T10:05:31.290Z,86
2023-02-11T10:06:31.178Z,86
2023-02-11T10:07:31.210Z,86
2023-02-11T10:08:31.187Z,86
2023-02-11T10:09:31.199Z,86
2023-02-11T10:10:31.173Z,86
2023-02-11T10:11:32.361Z,86
2023-02-11T10:12:31.154Z,86
2023-02-11T10:13:31.220Z,86
2023-02-11T10:14:31.170Z,86
2023-02-11T10:15:31.220Z,86
2023-02-11T10:16:31.214Z,87
2023-02-11T10:17:31.206Z,86
2023-02-11T10:18:31.206Z,87
2023-02-11T10:19:31.172Z,87
2023-02-11T10:20:31.248Z,87
2023-02-11T10:21:31.245Z,87
2023-02-11T10:22:31.234Z,86
2023-02-11T10:23:31.203Z,86
2023-02-11T10:24:31.152Z,86
2023-02-11T10:25:31.190Z,86
2023-02-11T10:26:31.223Z,86
2023-02-11T10:27:31.235Z,86
2023-02-11T10:28:31.318Z,87
2023-02-11T10:29:31.162Z,86
2023-02-11T10:30:31.221Z,86
2023-02-11T10:31:31.328Z,86
2023-02-11T10:32:31.187Z,86
2023-02-11T10:33:31.213Z,86
2023-02-11T10:34:31.197Z,86
2023-02-11T10:35:31.244Z,86
2023-02-11T10:36:31.177Z,86
2023-02-11T10:37:31.201Z,87
2023-02-11T10:38:31.204Z,86
2023-02-11T10:39:31.205Z,87
2023-02-11T10:40:31.163Z,87
2023-02-11T10:41:31.195Z,87
2023-02-11T10:42:31.227Z,86
2023-02-11T10:43:31.200Z,86
2023-02-11T10:44:31.185Z,86
2023-02-11T10:45:31.186Z,86
2023-02-11T10:46:31.203Z,86
2023-02-11T10:47:31.239Z,86
2023-02-11T10:48:31.167Z,86
2023-02-11T10:49:31.172Z,86
2023-02-11T10:50:31.249Z,86
2023-02-11T10:51:31.186Z,86
2023-02-11T10:52:31.231Z,86
2023-02-11T10:53:31.172Z,86
2023-02-11T10:54:31.223Z,86
2023-02-11T10:55:31.222Z,86
2023-02-11T10:56:31.182Z,86
2023-02-11T10:57:31.173Z,86
2023-02-11T10:58:31.192Z,86
2023-02-11T10:59:31.211Z,86
2023-02-11T11:00:31.194Z,86
2023-02-11T11:01:31.220Z,86
2023-02-11T11:02:31.199Z,86
2023-02-11T11:03:31.196Z,86
2023-02-11T11:04:31.233Z,86
2023-02-11T11:05:31.231Z,85
2023-02-11T11:06:31.194Z,85
2023-02-11T11:07:31.213Z,85
2023-02-11T11:08:31.170Z,84
2023-02-11T11:09:31.382Z,84
2023-02-11T11:10:31.182Z,84
2023-02-11T11:11:31.194Z,84
2023-02-11T11:12:31.240Z,84
2023-02-11T11:13:31.201Z,84
2023-02-11T11:14:31.221Z,84
2023-02-11T11:15:31.281Z,85
2023-02-11T11:16:31.280Z,85
2023-02-11T11:17:31.273Z,85
2023-02-11T11:18:31.243Z,85
2023-02-11T11:19:31.222Z,85
2023-02-11T11:20:31.442Z,85
2023-02-11T11:21:31.215Z,85
2023-02-11T11:22:31.213Z,85
2023-02-11T11:23:31.225Z,85
2023-02-11T11:24:31.210Z,85
2023-02-11T11:25:31.152Z,85
2023-02-11T11:26:31.217Z,85
2023-02-11T11:27:31.181Z,85
2023-02-11T11:28:31.258Z,85
2023-02-11T11:29:31.189Z,85
2023-02-11T11:30:31.178Z,85
2023-02-11T11:31:31.324Z,85
2023-02-11T11:32:31.140Z,85
2023-02-11T11:33:31.189Z,85
2023-02-11T11:34:31.177Z,85
2023-02-11T11:35:31.204Z,85
2023-02-11T11:36:31.179Z,85
2023-02-11T11:37:31.189Z,85
2023-02-11T11:38:31.199Z,85
2023-02-11T11:39:31.197Z,85
2023-02-11T11:40:31.161Z,85
2023-02-11T11:41:31.205Z,85
2023-02-11T11:42:31.198Z,85
2023-02-11T11:43:31.195Z,85
2023-02-11T11:44:31.172Z,85
2023-02-11T11:45:31.146Z,85
2023-02-11T11:46:31.213Z,85
2023-02-11T11:47:31.326Z,85
2023-02-11T11:48:31.143Z,85
2023-02-11T11:49:31.177Z,85
2023-02-11T11:50:31.231Z,85
2023-02-11T11:51:31.243Z,85
2023-02-11T11:52:31.297Z,85
2023-02-11T11:53:31.265Z,85
2023-02-11T11:54:31.169Z,85
2023-02-11T11:55:31.221Z,85
2023-02-11T11:56:31.380Z,85
2023-02-11T11:57:31.314Z,85
2023-02-11T11:58:31.225Z,85
2023-02-11T11:59:31.219Z,85
2023-02-11T12:00:31.247Z,85
2023-02-11T12:01:31.339Z,85
2023-02-11T12:02:31.137Z,85
2023-02-11T12:03:31.325Z,85
2023-02-11T12:04:31.165Z,85
2023-02-11T12:05:31.185Z,85
2023-02-11T12:06:31.174Z,85
2023-02-11T12:07:31.189Z,84
2023-02-11T12:08:31.189Z,85
2023-02-11T12:09:31.187Z,84
2023-02-11T12:10:31.170Z,84
2023-02-11T12:11:31.199Z,84
2023-02-11T12:12:31.156Z,84
2023-02-11T12:13:31.172Z,84
2023-02-11T12:14:31.172Z,84
2023-02-11T12:15:31.356Z,84
2023-02-11T12:16:31.185Z,84
2023-02-11T12:17:31.170Z,84
2023-02-11T12:18:31.173Z,83
2023-02-11T12:19:31.207Z,84
2023-02-11T12:20:31.176Z,84
2023-02-11T12:21:31.189Z,84
2023-02-11T12:22:31.143Z,84
2023-02-11T12:23:31.170Z,84
2023-02-11T12:24:31.176Z,84
2023-02-11T12:25:31.184Z,84
2023-02-11T12:26:31.190Z,84
2023-02-11T12:27:31.141Z,84
2023-02-11T12:28:31.219Z,84
2023-02-11T12:29:31.146Z,84
2023-02-11T12:30:31.204Z,84
2023-02-11T12:31:31.243Z,84
2023-02-11T12:32:31.186Z,84
2023-02-11T12:33:31.172Z,84
2023-02-11T12:34:31.193Z,84
2023-02-11T12:35:31.186Z,84
2023-02-11T12:36:31.198Z,84
2023-02-11T12:37:31.170Z,84
2023-02-11T12:38:31.194Z,84
2023-02-11T12:39:31.189Z,84
2023-02-11T12:40:31.171Z,84
2023-02-11T12:41:31.150Z,84
2023-02-11T12:42:31.155Z,84
2023-02-11T12:43:31.184Z,84
2023-02-11T12:44:31.220Z,84
2023-02-11T12:45:31.122Z,84
2023-02-11T12:46:31.169Z,83
2023-02-11T12:47:31.179Z,83
2023-02-11T12:48:31.223Z,83
2023-02-11T12:49:31.166Z,83
2023-02-11T12:50:31.183Z,83
2023-02-11T12:51:31.168Z,83
2023-02-11T12:52:31.185Z,83
2023-02-11T12:53:31.237Z,83
2023-02-11T12:54:31.470Z,82
2023-02-11T12:55:31.342Z,83
2023-02-11T12:56:32.227Z,83
2023-02-11T12:57:43.860Z,83
2023-02-11T12:58:47.946Z,83
2023-02-11T12:59:51.867Z,83
2023-02-11T13:00:56.187Z,82
2023-02-11T13:01:59.908Z,82
2023-02-11T13:03:04.048Z,83
2023-02-11T13:04:07.914Z,83
2023-02-11T13:05:14.223Z,82
2023-02-11T13:06:15.862Z,83
2023-02-11T13:07:19.954Z,83
2023-02-11T13:08:23.860Z,83
2023-02-11T13:09:27.902Z,83
2023-02-11T13:10:31.142Z,83
2023-02-11T13:11:31.178Z,83
2023-02-11T13:12:31.160Z,83
2023-02-11T13:13:31.186Z,83
2023-02-11T13:14:31.177Z,83
2023-02-11T13:15:31.183Z,83
2023-02-11T13:16:31.272Z,82
2023-02-11T13:17:31.150Z,82
2023-02-11T13:18:31.137Z,82
2023-02-11T13:19:31.165Z,82
2023-02-11T13:20:31.154Z,82
2023-02-11T13:21:31.275Z,81
2023-02-11T13:22:31.172Z,81
2023-02-11T13:23:31.650Z,80
2023-02-11T13:24:31.156Z,80
2023-02-11T13:25:31.169Z,79
2023-02-11T13:26:31.194Z,78
2023-02-11T13:27:31.175Z,77
2023-02-11T13:28:31.208Z,76
2023-02-11T13:29:31.168Z,76
2023-02-11T13:30:31.237Z,77
2023-02-11T13:31:31.250Z,75
2023-02-11T13:32:31.162Z,75
2023-02-11T13:33:31.179Z,74
2023-02-11T13:34:31.197Z,74
2023-02-11T13:35:31.196Z,74
2023-02-11T13:36:31.174Z,75
2023-02-11T13:37:31.137Z,74
2023-02-11T13:38:31.194Z,74
2023-02-11T13:39:31.150Z,74
2023-02-11T13:40:31.155Z,75
2023-02-11T13:41:31.144Z,74
2023-02-11T13:42:31.184Z,74
2023-02-11T13:43:31.147Z,74
2023-02-11T13:44:31.168Z,74
2023-02-11T13:45:31.145Z,74
2023-02-11T13:46:31.176Z,74
2023-02-11T13:47:31.194Z,74
2023-02-11T13:48:31.157Z,74
2023-02-11T13:49:31.166Z,73
2023-02-11T13:50:31.177Z,74
2023-02-11T13:51:31.144Z,73
2023-02-11T13:52:31.164Z,73
2023-02-11T13:53:31.144Z,74
2023-02-11T13:54:31.165Z,74
2023-02-11T13:55:31.181Z,73
2023-02-11T13:56:31.153Z,73
2023-02-11T13:57:31.172Z,73
2023-02-11T13:58:31.189Z,72
2023-02-11T13:59:31.141Z,73
2023-02-11T14:00:31.180Z,73
2023-02-11T14:01:31.202Z,73
2023-02-11T14:02:31.253Z,73
2023-02-11T14:03:31.313Z,73
2023-02-11T14:04:31.159Z,74
2023-02-11T14:05:31.180Z,75
2023-02-11T14:06:31.168Z,73
2023-02-11T14:07:31.169Z,73
2023-02-11T14:08:31.215Z,74
2023-02-11T14:09:31.158Z,73
2023-02-11T14:10:31.172Z,74
2023-02-11T14:11:31.176Z,74
2023-02-11T14:12:31.169Z,75
2023-02-11T14:13:31.196Z,75
2023-02-11T14:14:31.173Z,75
2023-02-11T14:15:31.138Z,75
2023-02-11T14:16:38.070Z,74
2023-02-11T14:17:31.399Z,74
2023-02-11T14:18:31.176Z,74